createdAt,value
2022-12-06T00:04:19.214Z,40.42
2022-12-06T00:09:30.064Z,40.50
2022-12-06T00:14:32.146Z,41.38
2022-12-06T00:19:34.022Z,38.92
2022-12-06T00:24:36.052Z,38.35
2022-12-06T00:29:37.983Z,39.15
2022-12-06T00:34:39.905Z,39.17
2022-12-06T00:39:42.402Z,39.95
2022-12-06T00:44:44.529Z,39.20
2022-12-06T00:49:46.565Z,38.72
2022-12-06T00:54:48.493Z,39.15
2022-12-06T00:59:50.435Z,38.05
2022-12-06T01:04:52.628Z,37.38
2022-12-06T01:09:54.699Z,37.10
2022-12-06T01:14:56.803Z,39.83
2022-12-06T01:19:58.891Z,37.15
2022-12-06T01:25:00.988Z,36.88
2022-12-06T01:30:03.119Z,37.47
2022-12-06T01:35:05.741Z,36.95
2022-12-06T01:40:08.299Z,38.30
2022-12-06T01:45:10.649Z,37.88
2022-12-06T01:50:17.616Z,38.30
2022-12-06T01:55:22.435Z,39.50
2022-12-06T02:00:25.865Z,39.72
2022-12-06T02:05:29.924Z,45.35
2022-12-06T02:10:32.155Z,43.67
2022-12-06T02:15:55.871Z,43.97
2022-12-06T02:21:21.012Z,46.13
2022-12-06T02:26:36.125Z,42.47
2022-12-06T02:31:41.839Z,45.42
2022-12-06T02:37:00.546Z,43.38
2022-12-06T02:42:10.092Z,45.40
2022-12-06T02:47:14.486Z,44.55
2022-12-06T02:52:19.197Z,112.25
2022-12-06T02:57:33.379Z,49.90
2022-12-06T03:02:36.199Z,46.33
2022-12-06T03:07:44.173Z,49.93
2022-12-06T03:13:07.548Z,43.38
2022-12-06T03:18:15.324Z,45.80
2022-12-06T03:23:23.647Z,44.30
2022-12-06T03:28:26.713Z,40.35
2022-12-06T03:33:32.358Z,42.60
2022-12-06T03:38:40.756Z,54.22
2022-12-06T03:43:42.711Z,45.78
2022-12-06T03:49:11.545Z,49.67
2022-12-06T03:54:13.624Z,44.63
2022-12-06T03:59:15.572Z,44.65
2022-12-06T04:04:17.483Z,40.60
2022-12-06T04:09:38.096Z,41.35
2022-12-06T04:14:40.144Z,38.35
2022-12-06T04:19:42.043Z,38.22
2022-12-06T04:24:43.896Z,38.72
2022-12-06T04:30:04.311Z,37.95
2022-12-06T04:35:24.540Z,34.50
2022-12-06T04:40:26.435Z,34.33
2022-12-06T04:45:28.277Z,41.25
2022-12-06T04:50:30.138Z,44.80
2022-12-06T04:55:33.548Z,37.20
2022-12-06T05:00:36.785Z,36.50
2022-12-06T05:05:38.848Z,38.45
2022-12-06T05:10:40.811Z,36.63
2022-12-06T05:15:56.897Z,36.08
2022-12-06T05:21:16.250Z,38.05
2022-12-06T05:26:20.252Z,34.78
2022-12-06T05:31:22.920Z,33.40
2022-12-06T05:36:27.098Z,35.38
2022-12-06T05:41:29.074Z,33.88
2022-12-06T05:46:30.964Z,36.67
2022-12-06T05:51:33.030Z,34.10
2022-12-06T05:56:34.960Z,33.97
2022-12-06T06:01:36.880Z,38.40
2022-12-06T06:06:38.799Z,36.63
2022-12-06T06:11:40.696Z,37.17
2022-12-06T06:16:42.736Z,36.30
2022-12-06T06:21:44.891Z,36.15
2022-12-06T06:26:46.960Z,37.20
2022-12-06T06:31:48.915Z,36.70
2022-12-06T06:36:51.246Z,43.17
2022-12-06T06:41:53.376Z,47.78
2022-12-06T06:46:55.249Z,44.88
2022-12-06T06:51:57.252Z,42.95
2022-12-06T06:56:59.594Z,41.20
2022-12-06T07:02:01.797Z,45.80
2022-12-06T07:07:03.765Z,39.00
2022-12-06T07:12:05.857Z,39.25
2022-12-06T07:17:07.971Z,40.45
2022-12-06T07:22:10.572Z,41.60
2022-12-06T07:27:12.655Z,42.47
2022-12-06T07:32:15.143Z,42.72
2022-12-06T07:37:19.132Z,39.47
2022-12-06T07:42:39.655Z,40.25
2022-12-06T07:47:44.022Z,63.92
2022-12-06T07:52:47.532Z,41.80
2022-12-06T07:57:49.701Z,41.47
2022-12-06T08:02:51.613Z,41.03
2022-12-06T08:07:53.493Z,45.72
2022-12-06T08:12:55.462Z,41.38
2022-12-06T08:17:58.228Z,42.25
2022-12-06T08:23:00.219Z,44.92
2022-12-06T08:28:02.411Z,41.72
2022-12-06T08:33:04.336Z,41.92
2022-12-06T08:38:06.179Z,40.67
2022-12-06T08:43:08.256Z,39.85
2022-12-06T08:48:10.137Z,42.05
2022-12-06T08:53:12.071Z,38.97
2022-12-06T08:58:13.921Z,41.72
2022-12-06T09:03:16.028Z,40.42
2022-12-06T09:08:18.115Z,42.00
2022-12-06T09:13:20.098Z,42.38
2022-12-06T09:18:22.425Z,37.17
2022-12-06T09:23:24.353Z,46.45
2022-12-06T09:28:26.352Z,40.65
2022-12-06T09:33:28.552Z,40.45
2022-12-06T09:38:34.130Z,43.47
2022-12-06T09:43:57.924Z,40.85
2022-12-06T09:49:12.971Z,45.92
2022-12-06T09:55:01.508Z,45.35
2022-12-06T10:00:12.014Z,46.10
2022-12-06T10:05:41.357Z,47.40
2022-12-06T10:10:56.167Z,51.65
2022-12-06T10:16:19.849Z,44.20
2022-12-06T10:21:46.060Z,49.13
2022-12-06T10:26:53.788Z,46.40
2022-12-06T10:31:57.895Z,47.72
2022-12-06T10:37:13.303Z,44.60
2022-12-06T10:42:53.777Z,47.95
2022-12-06T10:47:59.332Z,52.28
2022-12-06T10:53:05.914Z,55.92
2022-12-06T10:58:13.614Z,55.88
2022-12-06T11:03:38.154Z,48.72
2022-12-06T11:08:50.609Z,51.00
2022-12-06T11:14:24.210Z,54.67
2022-12-06T11:19:38.836Z,49.35
2022-12-06T11:25:16.708Z,55.30
2022-12-06T11:30:20.827Z,51.83
2022-12-06T11:35:26.490Z,54.35
2022-12-06T11:40:36.770Z,53.67
2022-12-06T11:45:41.395Z,52.13
2022-12-06T11:50:45.987Z,49.72
2022-12-06T11:55:52.719Z,54.55
2022-12-06T12:00:59.764Z,58.65
2022-12-06T12:06:22.888Z,53.50
2022-12-06T12:11:31.001Z,59.35
2022-12-06T12:16:42.914Z,55.42
2022-12-06T12:21:49.619Z,61.45
2022-12-06T12:26:54.771Z,58.88
2022-12-06T12:31:59.550Z,56.22
2022-12-06T12:37:04.567Z,54.10
2022-12-06T12:42:35.036Z,56.70
2022-12-06T12:47:37.517Z,58.20
2022-12-06T12:52:42.314Z,55.00
2022-12-06T12:57:53.203Z,56.13
2022-12-06T13:03:28.596Z,55.20
2022-12-06T13:08:36.331Z,54.78
2022-12-06T13:13:45.290Z,56.90
2022-12-06T13:18:58.546Z,69.10
2022-12-06T13:24:12.417Z,63.47
2022-12-06T13:29:31.023Z,63.85
2022-12-06T13:34:38.889Z,62.58
2022-12-06T13:39:47.394Z,68.45
2022-12-06T13:45:00.716Z,66.18
2022-12-06T13:50:25.152Z,61.72
2022-12-06T13:55:28.441Z,62.58
2022-12-06T14:00:30.500Z,64.93
2022-12-06T14:11:15.953Z,60.03
2022-12-06T14:16:30.697Z,75.18
2022-12-06T14:21:38.089Z,59.67
2022-12-06T14:26:40.138Z,60.20
2022-12-06T14:31:42.284Z,82.32
2022-12-06T14:36:44.310Z,63.10
2022-12-06T14:42:21.335Z,66.10
2022-12-06T14:47:23.647Z,60.17
2022-12-06T14:52:28.583Z,61.70
2022-12-06T14:57:32.275Z,64.95
2022-12-06T15:07:43.221Z,71.07
2022-12-06T15:12:57.104Z,66.78
2022-12-06T15:18:23.628Z,68.78
2022-12-06T15:23:31.699Z,69.07
2022-12-06T15:28:38.003Z,69.72
2022-12-06T15:33:40.135Z,69.40
2022-12-06T15:38:43.567Z,67.22
2022-12-06T15:43:46.546Z,70.28
2022-12-06T15:48:48.592Z,71.80
2022-12-06T15:53:50.852Z,68.47
2022-12-06T15:58:52.773Z,62.75
2022-12-06T16:03:56.375Z,60.55
2022-12-06T16:08:58.481Z,61.53
2022-12-06T16:14:00.746Z,59.40
2022-12-06T16:19:02.785Z,63.30
2022-12-06T16:24:19.818Z,64.40
2022-12-06T16:29:25.221Z,61.15
2022-12-06T16:34:29.284Z,59.85
2022-12-06T16:39:34.637Z,63.97
2022-12-06T16:44:51.339Z,63.15
2022-12-06T16:49:53.919Z,57.08
2022-12-06T16:54:55.786Z,56.10
2022-12-06T16:59:57.789Z,53.30
2022-12-06T17:05:03.495Z,52.75
2022-12-06T17:10:06.416Z,55.38
2022-12-06T17:15:12.789Z,58.27
2022-12-06T17:20:16.780Z,53.13
2022-12-06T17:25:19.546Z,56.83
2022-12-06T17:30:23.352Z,53.40
2022-12-06T17:35:26.006Z,57.40
2022-12-06T17:40:28.008Z,54.70
2022-12-06T17:45:36.508Z,54.80
2022-12-06T17:50:44.773Z,54.35
2022-12-06T17:55:46.700Z,51.47
2022-12-06T18:00:48.779Z,55.40
2022-12-06T18:05:56.935Z,59.60
2022-12-06T18:11:08.700Z,73.45
2022-12-06T18:16:29.212Z,76.57
2022-12-06T18:21:32.544Z,73.45
2022-12-06T18:26:34.864Z,79.07
2022-12-06T18:31:36.983Z,78.05
2022-12-06T18:36:40.557Z,71.45
2022-12-06T18:41:43.594Z,74.38
2022-12-06T18:46:45.554Z,88.88
2022-12-06T18:51:47.641Z,113.25
2022-12-06T18:56:49.554Z,124.53
2022-12-06T19:01:51.948Z,95.50
2022-12-06T19:06:54.468Z,85.82
2022-12-06T19:11:56.729Z,87.65
2022-12-06T19:17:00.621Z,74.53
2022-12-06T19:22:04.228Z,75.05
2022-12-06T19:27:06.106Z,90.45
2022-12-06T19:32:08.058Z,68.47
2022-12-06T19:37:23.783Z,78.50
2022-12-06T19:43:06.950Z,61.60
2022-12-06T19:48:16.184Z,69.30
2022-12-06T19:53:18.300Z,57.08
2022-12-06T19:58:22.301Z,67.55
2022-12-06T20:03:24.907Z,57.20
2022-12-06T20:08:26.856Z,45.00
2022-12-06T20:13:29.774Z,54.08
2022-12-06T20:18:34.960Z,43.13
2022-12-06T20:23:37.200Z,63.90
2022-12-06T20:28:39.539Z,43.33
2022-12-06T20:33:41.692Z,39.00
2022-12-06T20:38:43.869Z,33.47
2022-12-06T20:43:46.808Z,39.65
2022-12-06T20:48:49.381Z,42.40
2022-12-06T20:53:54.250Z,46.53
2022-12-06T20:58:58.224Z,39.25
2022-12-06T21:09:02.150Z,39.60
2022-12-06T21:14:05.522Z,39.63
2022-12-06T21:19:11.779Z,36.47
2022-12-06T21:24:46.597Z,34.13
2022-12-06T21:29:48.514Z,43.45
2022-12-06T21:34:50.792Z,44.10
2022-12-06T21:39:52.881Z,46.25
2022-12-06T21:44:54.979Z,44.65
2022-12-06T21:49:57.048Z,40.95
2022-12-06T21:55:01.699Z,41.95
2022-12-06T22:00:06.133Z,38.67
2022-12-06T22:05:33.966Z,61.95
2022-12-06T22:10:40.576Z,49.15
2022-12-06T22:15:42.556Z,182.52
2022-12-06T22:20:44.700Z,48.03
2022-12-06T22:25:46.760Z,47.58
2022-12-06T22:30:48.907Z,33.58
2022-12-06T22:35:50.765Z,35.97
2022-12-06T22:40:57.221Z,36.47
2022-12-06T22:46:06.677Z,50.40
2022-12-06T22:51:22.296Z,37.72
2022-12-06T22:56:25.319Z,35.28
2022-12-06T23:01:29.698Z,44.90
2022-12-06T23:06:35.447Z,33.65
2022-12-06T23:11:37.497Z,39.95
2022-12-06T23:16:41.480Z,27.65
2022-12-06T23:21:43.675Z,25.08
2022-12-06T23:26:51.824Z,26.92
2022-12-06T23:31:56.593Z,21.50
2022-12-06T23:36:58.638Z,23.80
2022-12-06T23:42:44.918Z,23.98
2022-12-06T23:53:10.384Z,30.08
2022-12-06T23:58:12.592Z,30.00
